sensor_id;sensor_type;location;lat;lon;timestamp;P1;durP1;ratioP1;P2;durP2;ratioP2
34783;SDS011;20998;51.388;7.032;2023-07-29T00:01:44;3.87;;;1.97;;
34783;SDS011;20998;51.388;7.032;2023-07-29T00:04:11;3.23;;;2.40;;
34783;SDS011;20998;51.388;7.032;2023-07-29T00:06:37;2.37;;;1.87;;
34783;SDS011;20998;51.388;7.032;2023-07-29T00:09:03;4.47;;;1.93;;
34783;SDS011;20998;51.388;7.032;2023-07-29T00:11:29;4.00;;;2.30;;
34783;SDS011;20998;51.388;7.032;2023-07-29T00:13:55;5.00;;;2.53;;
34783;SDS011;20998;51.388;7.032;2023-07-29T00:16:21;3.20;;;2.63;;
34783;SDS011;20998;51.388;7.032;2023-07-29T00:18:47;3.60;;;2.67;;
34783;SDS011;20998;51.388;7.032;2023-07-29T00:21:13;6.27;;;2.43;;
34783;SDS011;20998;51.388;7.032;2023-07-29T00:23:39;3.50;;;2.70;;
34783;SDS011;20998;51.388;7.032;2023-07-29T00:26:05;3.87;;;2.87;;
34783;SDS011;20998;51.388;7.032;2023-07-29T00:28:31;2.57;;;2.37;;
34783;SDS011;20998;51.388;7.032;2023-07-29T00:30:57;3.97;;;2.37;;
34783;SDS011;20998;51.388;7.032;2023-07-29T00:33:23;2.43;;;2.17;;
34783;SDS011;20998;51.388;7.032;2023-07-29T00:35:49;3.93;;;2.60;;
34783;SDS011;20998;51.388;7.032;2023-07-29T00:38:16;8.57;;;2.47;;
34783;SDS011;20998;51.388;7.032;2023-07-29T00:40:42;3.03;;;2.13;;
34783;SDS011;20998;51.388;7.032;2023-07-29T00:43:08;5.60;;;1.87;;
34783;SDS011;20998;51.388;7.032;2023-07-29T00:45:34;3.67;;;2.50;;
34783;SDS011;20998;51.388;7.032;2023-07-29T00:48:00;4.43;;;2.40;;
34783;SDS011;20998;51.388;7.032;2023-07-29T00:50:27;3.00;;;2.50;;
34783;SDS011;20998;51.388;7.032;2023-07-29T00:52:54;3.20;;;2.40;;
34783;SDS011;20998;51.388;7.032;2023-07-29T00:55:21;3.50;;;2.73;;
34783;SDS011;20998;51.388;7.032;2023-07-29T00:57:47;2.80;;;2.23;;
34783;SDS011;20998;51.388;7.032;2023-07-29T01:00:14;5.00;;;2.00;;
34783;SDS011;20998;51.388;7.032;2023-07-29T01:02:42;6.80;;;2.10;;
34783;SDS011;20998;51.388;7.032;2023-07-29T01:05:08;2.40;;;2.17;;
34783;SDS011;20998;51.388;7.032;2023-07-29T01:10:35;6.67;;;1.90;;
34783;SDS011;20998;51.388;7.032;2023-07-29T01:13:17;1.60;;;1.50;;
34783;SDS011;20998;51.388;7.032;2023-07-29T01:19:04;2.63;;;2.10;;
34783;SDS011;20998;51.388;7.032;2023-07-29T01:21:32;3.03;;;1.70;;
34783;SDS011;20998;51.388;7.032;2023-07-29T01:23:59;3.90;;;1.70;;
34783;SDS011;20998;51.388;7.032;2023-07-29T01:26:26;1.90;;;1.70;;
34783;SDS011;20998;51.388;7.032;2023-07-29T01:28:54;2.33;;;2.10;;
34783;SDS011;20998;51.388;7.032;2023-07-29T01:31:23;1.87;;;1.77;;
34783;SDS011;20998;51.388;7.032;2023-07-29T01:34:01;5.97;;;2.23;;
34783;SDS011;20998;51.388;7.032;2023-07-29T01:36:34;2.07;;;1.87;;
34783;SDS011;20998;51.388;7.032;2023-07-29T01:39:04;3.23;;;2.07;;
34783;SDS011;20998;51.388;7.032;2023-07-29T01:41:30;2.17;;;1.97;;
34783;SDS011;20998;51.388;7.032;2023-07-29T01:43:57;5.97;;;2.20;;
34783;SDS011;20998;51.388;7.032;2023-07-29T01:46:23;3.50;;;2.07;;
34783;SDS011;20998;51.388;7.032;2023-07-29T01:48:49;8.07;;;2.40;;
34783;SDS011;20998;51.388;7.032;2023-07-29T01:51:15;2.00;;;1.80;;
34783;SDS011;20998;51.388;7.032;2023-07-29T01:53:41;3.17;;;2.17;;
34783;SDS011;20998;51.388;7.032;2023-07-29T01:56:07;5.27;;;2.60;;
34783;SDS011;20998;51.388;7.032;2023-07-29T01:58:32;5.03;;;2.20;;
34783;SDS011;20998;51.388;7.032;2023-07-29T02:00:58;2.67;;;2.10;;
34783;SDS011;20998;51.388;7.032;2023-07-29T02:03:24;3.40;;;2.13;;
34783;SDS011;20998;51.388;7.032;2023-07-29T02:05:50;4.13;;;2.20;;
34783;SDS011;20998;51.388;7.032;2023-07-29T02:08:16;2.30;;;2.00;;
34783;SDS011;20998;51.388;7.032;2023-07-29T02:10:42;4.50;;;1.90;;
34783;SDS011;20998;51.388;7.032;2023-07-29T02:13:10;5.53;;;2.33;;
34783;SDS011;20998;51.388;7.032;2023-07-29T02:15:36;2.57;;;2.33;;
34783;SDS011;20998;51.388;7.032;2023-07-29T02:18:01;4.30;;;2.33;;
34783;SDS011;20998;51.388;7.032;2023-07-29T02:20:28;3.10;;;2.17;;
34783;SDS011;20998;51.388;7.032;2023-07-29T02:22:54;2.50;;;2.30;;
34783;SDS011;20998;51.388;7.032;2023-07-29T02:25:20;4.53;;;2.30;;
34783;SDS011;20998;51.388;7.032;2023-07-29T02:27:46;4.63;;;2.63;;
34783;SDS011;20998;51.388;7.032;2023-07-29T02:30:12;6.50;;;2.10;;
34783;SDS011;20998;51.388;7.032;2023-07-29T02:32:38;4.20;;;2.20;;
34783;SDS011;20998;51.388;7.032;2023-07-29T02:35:04;5.37;;;2.10;;
34783;SDS011;20998;51.388;7.032;2023-07-29T02:37:30;2.13;;;1.93;;
34783;SDS011;20998;51.388;7.032;2023-07-29T02:39:56;3.37;;;2.23;;
34783;SDS011;20998;51.388;7.032;2023-07-29T02:42:22;2.40;;;2.03;;
34783;SDS011;20998;51.388;7.032;2023-07-29T02:44:48;4.13;;;2.13;;
34783;SDS011;20998;51.388;7.032;2023-07-29T02:47:13;2.63;;;2.07;;
34783;SDS011;20998;51.388;7.032;2023-07-29T02:49:39;2.23;;;2.03;;
34783;SDS011;20998;51.388;7.032;2023-07-29T02:52:05;2.37;;;2.00;;
34783;SDS011;20998;51.388;7.032;2023-07-29T02:54:30;4.50;;;2.20;;
34783;SDS011;20998;51.388;7.032;2023-07-29T02:56:56;5.33;;;2.30;;
34783;SDS011;20998;51.388;7.032;2023-07-29T02:59:23;8.10;;;2.10;;
34783;SDS011;20998;51.388;7.032;2023-07-29T03:01:49;4.10;;;2.30;;
34783;SDS011;20998;51.388;7.032;2023-07-29T03:04:15;5.57;;;2.27;;
34783;SDS011;20998;51.388;7.032;2023-07-29T03:06:41;3.47;;;2.07;;
34783;SDS011;20998;51.388;7.032;2023-07-29T03:09:07;2.87;;;2.10;;
34783;SDS011;20998;51.388;7.032;2023-07-29T03:11:33;7.53;;;2.57;;
34783;SDS011;20998;51.388;7.032;2023-07-29T03:13:59;2.90;;;2.40;;
34783;SDS011;20998;51.388;7.032;2023-07-29T03:16:25;13.40;;;2.40;;
34783;SDS011;20998;51.388;7.032;2023-07-29T03:18:51;4.60;;;2.60;;
34783;SDS011;20998;51.388;7.032;2023-07-29T03:21:17;5.73;;;2.87;;
34783;SDS011;20998;51.388;7.032;2023-07-29T03:23:43;2.40;;;2.10;;
34783;SDS011;20998;51.388;7.032;2023-07-29T03:26:09;3.73;;;2.30;;
34783;SDS011;20998;51.388;7.032;2023-07-29T03:28:36;3.07;;;2.37;;
34783;SDS011;20998;51.388;7.032;2023-07-29T03:31:04;5.43;;;2.50;;
34783;SDS011;20998;51.388;7.032;2023-07-29T03:33:30;14.50;;;2.97;;
34783;SDS011;20998;51.388;7.032;2023-07-29T03:35:56;6.70;;;2.40;;
34783;SDS011;20998;51.388;7.032;2023-07-29T03:38:22;3.47;;;2.53;;
34783;SDS011;20998;51.388;7.032;2023-07-29T03:40:48;7.50;;;2.63;;
34783;SDS011;20998;51.388;7.032;2023-07-29T03:43:14;5.27;;;2.90;;
34783;SDS011;20998;51.388;7.032;2023-07-29T03:45:40;3.00;;;2.60;;
34783;SDS011;20998;51.388;7.032;2023-07-29T03:48:07;5.20;;;3.00;;
34783;SDS011;20998;51.388;7.032;2023-07-29T03:50:33;4.17;;;3.00;;
34783;SDS011;20998;51.388;7.032;2023-07-29T03:53:01;5.53;;;3.13;;
34783;SDS011;20998;51.388;7.032;2023-07-29T03:55:27;3.57;;;3.20;;
34783;SDS011;20998;51.388;7.032;2023-07-29T03:57:55;4.40;;;3.10;;
34783;SDS011;20998;51.388;7.032;2023-07-29T04:00:21;4.30;;;3.23;;
34783;SDS011;20998;51.388;7.032;2023-07-29T04:02:47;5.87;;;2.77;;
34783;SDS011;20998;51.388;7.032;2023-07-29T04:05:12;4.13;;;3.47;;
34783;SDS011;20998;51.388;7.032;2023-07-29T04:07:38;4.80;;;3.10;;
34783;SDS011;20998;51.388;7.032;2023-07-29T04:10:04;5.47;;;2.73;;
34783;SDS011;20998;51.388;7.032;2023-07-29T04:12:31;3.47;;;2.60;;
34783;SDS011;20998;51.388;7.032;2023-07-29T04:14:57;5.40;;;2.40;;
34783;SDS011;20998;51.388;7.032;2023-07-29T04:17:23;4.40;;;2.43;;
34783;SDS011;20998;51.388;7.032;2023-07-29T04:19:49;4.00;;;2.67;;
34783;SDS011;20998;51.388;7.032;2023-07-29T04:22:15;6.57;;;2.20;;
34783;SDS011;20998;51.388;7.032;2023-07-29T04:24:41;5.00;;;2.77;;
34783;SDS011;20998;51.388;7.032;2023-07-29T04:27:07;5.33;;;3.03;;
34783;SDS011;20998;51.388;7.032;2023-07-29T04:29:33;5.70;;;2.93;;
34783;SDS011;20998;51.388;7.032;2023-07-29T04:32:01;7.73;;;3.27;;
34783;SDS011;20998;51.388;7.032;2023-07-29T04:34:27;17.77;;;3.43;;
34783;SDS011;20998;51.388;7.032;2023-07-29T04:36:53;9.30;;;2.87;;
34783;SDS011;20998;51.388;7.032;2023-07-29T04:39:18;14.93;;;3.60;;
34783;SDS011;20998;51.388;7.032;2023-07-29T04:41:44;4.17;;;3.10;;
34783;SDS011;20998;51.388;7.032;2023-07-29T04:44:10;5.57;;;3.73;;
34783;SDS011;20998;51.388;7.032;2023-07-29T04:46:36;6.50;;;4.20;;
34783;SDS011;20998;51.388;7.032;2023-07-29T04:49:01;6.03;;;3.87;;
34783;SDS011;20998;51.388;7.032;2023-07-29T04:51:27;11.57;;;4.00;;
34783;SDS011;20998;51.388;7.032;2023-07-29T04:53:53;5.80;;;4.57;;
34783;SDS011;20998;51.388;7.032;2023-07-29T04:56:19;8.03;;;3.83;;
34783;SDS011;20998;51.388;7.032;2023-07-29T04:58:45;5.43;;;3.63;;
34783;SDS011;20998;51.388;7.032;2023-07-29T05:01:11;4.50;;;3.40;;
34783;SDS011;20998;51.388;7.032;2023-07-29T05:03:37;3.80;;;3.10;;
34783;SDS011;20998;51.388;7.032;2023-07-29T05:06:04;5.20;;;3.60;;
34783;SDS011;20998;51.388;7.032;2023-07-29T05:08:30;8.33;;;4.93;;
34783;SDS011;20998;51.388;7.032;2023-07-29T05:10:56;8.37;;;4.97;;
34783;SDS011;20998;51.388;7.032;2023-07-29T05:13:23;7.77;;;5.53;;
34783;SDS011;20998;51.388;7.032;2023-07-29T05:15:49;7.00;;;4.97;;
34783;SDS011;20998;51.388;7.032;2023-07-29T05:18:15;9.47;;;5.63;;
34783;SDS011;20998;51.388;7.032;2023-07-29T05:20:41;7.93;;;5.50;;
34783;SDS011;20998;51.388;7.032;2023-07-29T05:23:07;8.33;;;5.23;;
34783;SDS011;20998;51.388;7.032;2023-07-29T05:25:33;6.87;;;5.23;;
34783;SDS011;20998;51.388;7.032;2023-07-29T05:28:02;5.30;;;4.30;;
34783;SDS011;20998;51.388;7.032;2023-07-29T05:30:28;15.60;;;4.70;;
34783;SDS011;20998;51.388;7.032;2023-07-29T05:32:56;6.07;;;4.40;;
34783;SDS011;20998;51.388;7.032;2023-07-29T05:35:22;8.30;;;4.67;;
34783;SDS011;20998;51.388;7.032;2023-07-29T05:37:48;6.73;;;4.50;;
34783;SDS011;20998;51.388;7.032;2023-07-29T05:40:14;8.63;;;4.90;;
34783;SDS011;20998;51.388;7.032;2023-07-29T05:42:40;5.17;;;4.10;;
34783;SDS011;20998;51.388;7.032;2023-07-29T05:45:07;5.20;;;3.93;;
34783;SDS011;20998;51.388;7.032;2023-07-29T05:47:33;12.80;;;3.87;;
34783;SDS011;20998;51.388;7.032;2023-07-29T05:49:59;5.67;;;3.73;;
34783;SDS011;20998;51.388;7.032;2023-07-29T05:52:29;8.50;;;3.53;;
34783;SDS011;20998;51.388;7.032;2023-07-29T05:54:55;4.07;;;2.87;;
34783;SDS011;20998;51.388;7.032;2023-07-29T05:57:21;7.17;;;2.90;;
34783;SDS011;20998;51.388;7.032;2023-07-29T05:59:46;4.03;;;2.77;;
34783;SDS011;20998;51.388;7.032;2023-07-29T06:02:12;3.33;;;2.37;;
34783;SDS011;20998;51.388;7.032;2023-07-29T06:04:38;5.87;;;3.27;;
34783;SDS011;20998;51.388;7.032;2023-07-29T06:07:04;9.60;;;3.07;;
34783;SDS011;20998;51.388;7.032;2023-07-29T06:09:30;4.37;;;2.57;;
34783;SDS011;20998;51.388;7.032;2023-07-29T06:11:56;3.60;;;2.30;;
34783;SDS011;20998;51.388;7.032;2023-07-29T06:14:22;4.87;;;2.50;;
34783;SDS011;20998;51.388;7.032;2023-07-29T06:16:48;3.77;;;2.30;;
34783;SDS011;20998;51.388;7.032;2023-07-29T06:19:13;3.17;;;2.43;;
34783;SDS011;20998;51.388;7.032;2023-07-29T06:21:39;2.00;;;1.60;;
34783;SDS011;20998;51.388;7.032;2023-07-29T06:24:05;2.03;;;1.83;;
34783;SDS011;20998;51.388;7.032;2023-07-29T06:26:31;3.97;;;2.07;;
34783;SDS011;20998;51.388;7.032;2023-07-29T06:28:57;2.63;;;2.27;;
34783;SDS011;20998;51.388;7.032;2023-07-29T06:31:23;4.20;;;2.87;;
34783;SDS011;20998;51.388;7.032;2023-07-29T06:33:48;2.20;;;1.97;;
34783;SDS011;20998;51.388;7.032;2023-07-29T06:36:14;5.77;;;2.03;;
34783;SDS011;20998;51.388;7.032;2023-07-29T06:38:40;5.97;;;2.20;;
34783;SDS011;20998;51.388;7.032;2023-07-29T06:41:06;4.80;;;2.27;;
34783;SDS011;20998;51.388;7.032;2023-07-29T06:43:32;3.73;;;2.17;;
34783;SDS011;20998;51.388;7.032;2023-07-29T06:45:58;2.93;;;1.87;;
34783;SDS011;20998;51.388;7.032;2023-07-29T06:48:24;2.13;;;1.73;;
34783;SDS011;20998;51.388;7.032;2023-07-29T06:50:50;5.37;;;1.70;;
34783;SDS011;20998;51.388;7.032;2023-07-29T06:53:16;2.30;;;1.70;;
34783;SDS011;20998;51.388;7.032;2023-07-29T06:55:42;4.20;;;1.67;;
34783;SDS011;20998;51.388;7.032;2023-07-29T06:58:08;2.53;;;1.53;;
34783;SDS011;20998;51.388;7.032;2023-07-29T07:00:35;1.50;;;1.33;;
34783;SDS011;20998;51.388;7.032;2023-07-29T07:03:00;3.13;;;1.77;;
34783;SDS011;20998;51.388;7.032;2023-07-29T07:05:26;6.03;;;1.43;;
34783;SDS011;20998;51.388;7.032;2023-07-29T07:07:52;2.03;;;1.80;;
34783;SDS011;20998;51.388;7.032;2023-07-29T07:10:19;2.40;;;1.60;;
34783;SDS011;20998;51.388;7.032;2023-07-29T07:12:45;4.87;;;1.90;;
34783;SDS011;20998;51.388;7.032;2023-07-29T07:15:11;2.37;;;1.50;;
34783;SDS011;20998;51.388;7.032;2023-07-29T07:17:37;1.80;;;1.40;;
34783;SDS011;20998;51.388;7.032;2023-07-29T07:20:03;1.67;;;1.47;;
34783;SDS011;20998;51.388;7.032;2023-07-29T07:22:29;2.07;;;1.70;;
34783;SDS011;20998;51.388;7.032;2023-07-29T07:24:55;2.60;;;1.57;;
34783;SDS011;20998;51.388;7.032;2023-07-29T07:27:21;1.97;;;1.60;;
34783;SDS011;20998;51.388;7.032;2023-07-29T07:29:47;2.30;;;1.50;;
34783;SDS011;20998;51.388;7.032;2023-07-29T07:32:13;1.27;;;1.17;;
34783;SDS011;20998;51.388;7.032;2023-07-29T07:34:38;2.00;;;1.40;;
34783;SDS011;20998;51.388;7.032;2023-07-29T07:37:05;1.47;;;1.10;;
34783;SDS011;20998;51.388;7.032;2023-07-29T07:39:31;1.67;;;1.30;;
34783;SDS011;20998;51.388;7.032;2023-07-29T07:41:57;1.07;;;0.93;;
34783;SDS011;20998;51.388;7.032;2023-07-29T07:44:23;4.70;;;1.30;;
34783;SDS011;20998;51.388;7.032;2023-07-29T07:46:51;1.73;;;1.10;;
34783;SDS011;20998;51.388;7.032;2023-07-29T07:49:17;1.73;;;1.10;;
34783;SDS011;20998;51.388;7.032;2023-07-29T07:51:43;1.67;;;1.10;;
34783;SDS011;20998;51.388;7.032;2023-07-29T07:54:09;2.20;;;1.10;;
34783;SDS011;20998;51.388;7.032;2023-07-29T07:56:35;1.23;;;1.00;;
34783;SDS011;20998;51.388;7.032;2023-07-29T07:59:01;2.00;;;1.03;;
34783;SDS011;20998;51.388;7.032;2023-07-29T08:01:27;2.20;;;1.50;;
34783;SDS011;20998;51.388;7.032;2023-07-29T08:03:53;2.87;;;1.10;;
34783;SDS011;20998;51.388;7.032;2023-07-29T08:06:19;2.63;;;1.10;;
34783;SDS011;20998;51.388;7.032;2023-07-29T08:08:44;1.03;;;0.93;;
34783;SDS011;20998;51.388;7.032;2023-07-29T08:11:10;1.57;;;1.03;;
34783;SDS011;20998;51.388;7.032;2023-07-29T08:13:36;1.80;;;0.90;;
34783;SDS011;20998;51.388;7.032;2023-07-29T08:16:02;0.83;;;0.80;;
34783;SDS011;20998;51.388;7.032;2023-07-29T08:18:28;1.10;;;0.87;;
34783;SDS011;20998;51.388;7.032;2023-07-29T08:20:54;1.67;;;0.90;;
34783;SDS011;20998;51.388;7.032;2023-07-29T08:23:23;3.70;;;1.20;;
34783;SDS011;20998;51.388;7.032;2023-07-29T08:25:56;1.43;;;0.80;;
34783;SDS011;20998;51.388;7.032;2023-07-29T08:28:26;3.60;;;0.80;;
34783;SDS011;20998;51.388;7.032;2023-07-29T08:31:03;1.20;;;1.10;;
34783;SDS011;20998;51.388;7.032;2023-07-29T08:33:29;0.90;;;0.80;;
34783;SDS011;20998;51.388;7.032;2023-07-29T08:35:55;0.93;;;0.73;;
34783;SDS011;20998;51.388;7.032;2023-07-29T08:38:21;3.97;;;0.70;;
34783;SDS011;20998;51.388;7.032;2023-07-29T08:40:52;0.90;;;0.85;;
34783;SDS011;20998;51.388;7.032;2023-07-29T08:43:25;0.68;;;0.68;;
34783;SDS011;20998;51.388;7.032;2023-07-29T08:46:00;2.00;;;1.02;;
34783;SDS011;20998;51.388;7.032;2023-07-29T08:48:32;1.33;;;1.02;;
34783;SDS011;20998;51.388;7.032;2023-07-29T08:51:03;1.67;;;1.00;;
34783;SDS011;20998;51.388;7.032;2023-07-29T08:53:30;0.50;;;0.50;;
34783;SDS011;20998;51.388;7.032;2023-07-29T08:55:56;0.90;;;0.80;;
34783;SDS011;20998;51.388;7.032;2023-07-29T08:58:23;1.63;;;1.00;;
34783;SDS011;20998;51.388;7.032;2023-07-29T09:00:49;1.48;;;0.80;;
34783;SDS011;20998;51.388;7.032;2023-07-29T09:03:15;0.80;;;0.63;;
34783;SDS011;20998;51.388;7.032;2023-07-29T09:05:41;1.08;;;0.55;;
34783;SDS011;20998;51.388;7.032;2023-07-29T09:08:07;1.17;;;0.80;;
34783;SDS011;20998;51.388;7.032;2023-07-29T09:10:36;1.00;;;0.60;;
34783;SDS011;20998;51.388;7.032;2023-07-29T09:13:02;1.00;;;0.70;;
34783;SDS011;20998;51.388;7.032;2023-07-29T09:15:29;1.13;;;0.68;;
34783;SDS011;20998;51.388;7.032;2023-07-29T09:17:56;1.45;;;0.82;;
34783;SDS011;20998;51.388;7.032;2023-07-29T09:20:26;3.35;;;0.90;;
34783;SDS011;20998;51.388;7.032;2023-07-29T09:22:53;1.40;;;0.90;;
34783;SDS011;20998;51.388;7.032;2023-07-29T09:25:24;1.30;;;0.65;;
34783;SDS011;20998;51.388;7.032;2023-07-29T09:27:51;1.77;;;0.70;;
34783;SDS011;20998;51.388;7.032;2023-07-29T09:30:16;3.33;;;0.60;;
34783;SDS011;20998;51.388;7.032;2023-07-29T09:32:42;0.70;;;0.70;;
34783;SDS011;20998;51.388;7.032;2023-07-29T09:35:11;0.68;;;0.60;;
34783;SDS011;20998;51.388;7.032;2023-07-29T09:37:37;1.00;;;0.60;;
34783;SDS011;20998;51.388;7.032;2023-07-29T09:40:04;0.60;;;0.52;;
34783;SDS011;20998;51.388;7.032;2023-07-29T09:42:31;0.70;;;0.70;;
34783;SDS011;20998;51.388;7.032;2023-07-29T09:44:57;0.60;;;0.60;;
34783;SDS011;20998;51.388;7.032;2023-07-29T09:47:23;7.88;;;0.93;;
34783;SDS011;20998;51.388;7.032;2023-07-29T09:49:50;4.40;;;1.17;;
34783;SDS011;20998;51.388;7.032;2023-07-29T09:52:16;0.73;;;0.73;;
34783;SDS011;20998;51.388;7.032;2023-07-29T09:54:43;0.83;;;0.80;;
34783;SDS011;20998;51.388;7.032;2023-07-29T09:57:13;0.52;;;0.52;;
34783;SDS011;20998;51.388;7.032;2023-07-29T09:59:39;1.30;;;0.77;;
34783;SDS011;20998;51.388;7.032;2023-07-29T10:02:06;1.30;;;0.80;;
34783;SDS011;20998;51.388;7.032;2023-07-29T10:04:41;1.73;;;0.80;;
34783;SDS011;20998;51.388;7.032;2023-07-29T10:07:08;1.00;;;0.90;;
34783;SDS011;20998;51.388;7.032;2023-07-29T10:09:35;0.93;;;0.90;;
34783;SDS011;20998;51.388;7.032;2023-07-29T10:12:02;1.27;;;0.70;;
34783;SDS011;20998;51.388;7.032;2023-07-29T10:14:30;0.70;;;0.70;;
34783;SDS011;20998;51.388;7.032;2023-07-29T10:16:57;0.93;;;0.83;;
34783;SDS011;20998;51.388;7.032;2023-07-29T10:19:23;5.50;;;1.23;;
34783;SDS011;20998;51.388;7.032;2023-07-29T10:21:50;1.33;;;0.82;;
34783;SDS011;20998;51.388;7.032;2023-07-29T10:24:22;1.20;;;0.82;;
34783;SDS011;20998;51.388;7.032;2023-07-29T10:26:56;2.33;;;0.80;;
34783;SDS011;20998;51.388;7.032;2023-07-29T10:29:24;1.02;;;0.80;;
34783;SDS011;20998;51.388;7.032;2023-07-29T10:31:52;1.08;;;0.70;;
34783;SDS011;20998;51.388;7.032;2023-07-29T10:34:20;1.08;;;0.68;;
34783;SDS011;20998;51.388;7.032;2023-07-29T10:36:46;1.02;;;0.80;;
34783;SDS011;20998;51.388;7.032;2023-07-29T10:39:13;0.60;;;0.60;;
34783;SDS011;20998;51.388;7.032;2023-07-29T10:47:13;1.27;;;0.80;;
34783;SDS011;20998;51.388;7.032;2023-07-29T10:49:42;1.63;;;0.88;;
34783;SDS011;20998;51.388;7.032;2023-07-29T10:52:11;0.77;;;0.70;;
34783;SDS011;20998;51.388;7.032;2023-07-29T10:54:45;1.58;;;0.90;;
34783;SDS011;20998;51.388;7.032;2023-07-29T10:57:13;2.42;;;1.23;;
34783;SDS011;20998;51.388;7.032;2023-07-29T10:59:55;1.50;;;1.02;;
34783;SDS011;20998;51.388;7.032;2023-07-29T11:02:22;1.50;;;0.90;;
34783;SDS011;20998;51.388;7.032;2023-07-29T11:04:58;1.52;;;1.02;;
34783;SDS011;20998;51.388;7.032;2023-07-29T11:07:25;3.65;;;1.10;;
34783;SDS011;20998;51.388;7.032;2023-07-29T11:09:55;1.55;;;0.60;;
34783;SDS011;20998;51.388;7.032;2023-07-29T11:17:49;1.58;;;0.90;;
34783;SDS011;20998;51.388;7.032;2023-07-29T11:20:18;10.00;;;0.93;;
34783;SDS011;20998;51.388;7.032;2023-07-29T11:22:49;2.13;;;1.00;;
34783;SDS011;20998;51.388;7.032;2023-07-29T11:25:15;1.13;;;0.70;;
34783;SDS011;20998;51.388;7.032;2023-07-29T11:27:42;4.50;;;1.00;;
34783;SDS011;20998;51.388;7.032;2023-07-29T11:30:09;3.10;;;0.80;;
34783;SDS011;20998;51.388;7.032;2023-07-29T11:32:36;1.05;;;0.95;;
34783;SDS011;20998;51.388;7.032;2023-07-29T11:37:30;2.47;;;1.02;;
34783;SDS011;20998;51.388;7.032;2023-07-29T11:39:56;1.08;;;0.77;;
34783;SDS011;20998;51.388;7.032;2023-07-29T11:42:23;2.20;;;0.75;;
34783;SDS011;20998;51.388;7.032;2023-07-29T11:44:49;1.70;;;0.90;;
34783;SDS011;20998;51.388;7.032;2023-07-29T11:47:15;1.23;;;0.80;;
34783;SDS011;20998;51.388;7.032;2023-07-29T11:49:41;1.15;;;1.00;;
34783;SDS011;20998;51.388;7.032;2023-07-29T11:52:07;1.05;;;0.80;;
34783;SDS011;20998;51.388;7.032;2023-07-29T11:54:37;1.48;;;1.00;;
34783;SDS011;20998;51.388;7.032;2023-07-29T11:57:07;1.58;;;1.13;;
34783;SDS011;20998;51.388;7.032;2023-07-29T11:59:34;1.83;;;1.20;;
34783;SDS011;20998;51.388;7.032;2023-07-29T12:02:01;1.77;;;1.10;;
34783;SDS011;20998;51.388;7.032;2023-07-29T12:04:30;7.10;;;0.85;;
34783;SDS011;20998;51.388;7.032;2023-07-29T12:06:56;5.80;;;1.38;;
34783;SDS011;20998;51.388;7.032;2023-07-29T12:09:23;1.35;;;0.95;;
34783;SDS011;20998;51.388;7.032;2023-07-29T12:11:49;1.33;;;0.93;;
34783;SDS011;20998;51.388;7.032;2023-07-29T12:14:16;1.10;;;0.95;;
34783;SDS011;20998;51.388;7.032;2023-07-29T12:16:42;0.77;;;0.77;;
34783;SDS011;20998;51.388;7.032;2023-07-29T12:19:11;0.98;;;0.85;;
34783;SDS011;20998;51.388;7.032;2023-07-29T12:21:38;1.73;;;0.82;;
34783;SDS011;20998;51.388;7.032;2023-07-29T12:24:03;0.98;;;0.80;;
34783;SDS011;20998;51.388;7.032;2023-07-29T12:26:29;1.10;;;1.02;;
34783;SDS011;20998;51.388;7.032;2023-07-29T12:28:55;0.88;;;0.77;;
34783;SDS011;20998;51.388;7.032;2023-07-29T12:31:33;0.82;;;0.82;;
34783;SDS011;20998;51.388;7.032;2023-07-29T12:34:02;4.85;;;1.02;;
34783;SDS011;20998;51.388;7.032;2023-07-29T12:36:43;1.52;;;1.27;;
34783;SDS011;20998;51.388;7.032;2023-07-29T12:41:54;5.55;;;1.08;;
34783;SDS011;20998;51.388;7.032;2023-07-29T12:44:24;1.13;;;1.02;;
34783;SDS011;20998;51.388;7.032;2023-07-29T12:46:52;1.17;;;1.08;;
34783;SDS011;20998;51.388;7.032;2023-07-29T12:49:17;1.52;;;0.93;;
34783;SDS011;20998;51.388;7.032;2023-07-29T12:51:45;0.90;;;0.82;;
34783;SDS011;20998;51.388;7.032;2023-07-29T12:54:10;2.88;;;1.23;;
34783;SDS011;20998;51.388;7.032;2023-07-29T12:56:36;2.03;;;1.13;;
34783;SDS011;20998;51.388;7.032;2023-07-29T12:59:02;2.50;;;1.05;;
34783;SDS011;20998;51.388;7.032;2023-07-29T13:01:28;1.40;;;1.08;;
34783;SDS011;20998;51.388;7.032;2023-07-29T13:03:54;2.00;;;1.48;;
34783;SDS011;20998;51.388;7.032;2023-07-29T13:06:21;2.35;;;1.63;;
34783;SDS011;20998;51.388;7.032;2023-07-29T13:08:47;2.58;;;1.10;;
34783;SDS011;20998;51.388;7.032;2023-07-29T13:11:14;1.60;;;1.20;;
34783;SDS011;20998;51.388;7.032;2023-07-29T13:13:40;1.17;;;1.08;;
34783;SDS011;20998;51.388;7.032;2023-07-29T13:16:05;1.40;;;1.23;;
34783;SDS011;20998;51.388;7.032;2023-07-29T13:18:31;1.98;;;1.10;;
34783;SDS011;20998;51.388;7.032;2023-07-29T13:20:58;1.38;;;1.13;;
34783;SDS011;20998;51.388;7.032;2023-07-29T13:23:25;1.27;;;1.17;;
34783;SDS011;20998;51.388;7.032;2023-07-29T13:25:50;1.25;;;0.95;;
34783;SDS011;20998;51.388;7.032;2023-07-29T13:28:16;1.60;;;1.10;;
34783;SDS011;20998;51.388;7.032;2023-07-29T13:30:43;2.00;;;1.38;;
34783;SDS011;20998;51.388;7.032;2023-07-29T13:33:09;2.10;;;1.10;;
34783;SDS011;20998;51.388;7.032;2023-07-29T13:35:35;1.08;;;0.98;;
34783;SDS011;20998;51.388;7.032;2023-07-29T13:38:01;6.10;;;1.13;;
34783;SDS011;20998;51.388;7.032;2023-07-29T13:40:28;1.70;;;1.23;;
34783;SDS011;20998;51.388;7.032;2023-07-29T13:42:54;2.58;;;1.08;;
34783;SDS011;20998;51.388;7.032;2023-07-29T13:45:20;1.13;;;1.00;;
34783;SDS011;20998;51.388;7.032;2023-07-29T13:47:46;6.80;;;1.23;;
34783;SDS011;20998;51.388;7.032;2023-07-29T13:50:12;1.00;;;0.85;;
34783;SDS011;20998;51.388;7.032;2023-07-29T13:52:38;1.20;;;1.00;;
34783;SDS011;20998;51.388;7.032;2023-07-29T13:55:04;1.10;;;1.00;;
34783;SDS011;20998;51.388;7.032;2023-07-29T13:57:30;1.40;;;1.20;;
34783;SDS011;20998;51.388;7.032;2023-07-29T13:59:56;1.47;;;1.20;;
34783;SDS011;20998;51.388;7.032;2023-07-29T14:02:22;2.60;;;1.50;;
34783;SDS011;20998;51.388;7.032;2023-07-29T14:04:48;2.03;;;1.33;;
34783;SDS011;20998;51.388;7.032;2023-07-29T14:07:14;2.27;;;1.30;;
34783;SDS011;20998;51.388;7.032;2023-07-29T14:09:40;2.63;;;1.40;;
34783;SDS011;20998;51.388;7.032;2023-07-29T14:12:08;5.37;;;1.57;;
34783;SDS011;20998;51.388;7.032;2023-07-29T14:14:37;1.70;;;1.37;;
34783;SDS011;20998;51.388;7.032;2023-07-29T14:17:03;2.17;;;1.47;;
34783;SDS011;20998;51.388;7.032;2023-07-29T14:19:29;3.70;;;1.30;;
34783;SDS011;20998;51.388;7.032;2023-07-29T14:21:55;1.87;;;1.50;;
34783;SDS011;20998;51.388;7.032;2023-07-29T14:24:21;2.13;;;1.77;;
34783;SDS011;20998;51.388;7.032;2023-07-29T14:26:47;4.27;;;1.47;;
34783;SDS011;20998;51.388;7.032;2023-07-29T14:29:13;3.53;;;1.77;;
34783;SDS011;20998;51.388;7.032;2023-07-29T14:31:39;1.87;;;1.50;;
34783;SDS011;20998;51.388;7.032;2023-07-29T14:34:05;1.67;;;1.57;;
34783;SDS011;20998;51.388;7.032;2023-07-29T14:36:31;2.07;;;1.80;;
34783;SDS011;20998;51.388;7.032;2023-07-29T14:38:57;3.57;;;1.80;;
34783;SDS011;20998;51.388;7.032;2023-07-29T14:41:23;1.97;;;1.60;;
34783;SDS011;20998;51.388;7.032;2023-07-29T14:43:49;1.67;;;1.40;;
34783;SDS011;20998;51.388;7.032;2023-07-29T14:46:15;5.60;;;1.60;;
34783;SDS011;20998;51.388;7.032;2023-07-29T14:48:41;1.33;;;1.20;;
34783;SDS011;20998;51.388;7.032;2023-07-29T14:51:07;3.43;;;1.50;;
34783;SDS011;20998;51.388;7.032;2023-07-29T14:53:33;1.60;;;1.50;;
34783;SDS011;20998;51.388;7.032;2023-07-29T14:55:59;3.30;;;1.87;;
34783;SDS011;20998;51.388;7.032;2023-07-29T14:58:25;3.17;;;1.67;;
34783;SDS011;20998;51.388;7.032;2023-07-29T15:00:51;3.83;;;1.60;;
34783;SDS011;20998;51.388;7.032;2023-07-29T15:03:17;3.27;;;1.27;;
34783;SDS011;20998;51.388;7.032;2023-07-29T15:05:43;2.33;;;1.40;;
34783;SDS011;20998;51.388;7.032;2023-07-29T15:08:09;4.43;;;1.43;;